Time;durP1;ratioP1;P1;durP2;ratioP2;P2;SDS_P1;SDS_P2;PMS_P1;PMS_P2;Temp;Humidity;BMP_temperature;BMP_pressure;BME280_temperature;BME280_humidity;BME280_pressure;Samples;Min_cycle;Max_cycle;Signal;HPM_P1;HPM_P2
2022/05/13 00:00:01;;;;;;;1.45;0.10;;;;;;;;;;4996239;28;20465;-83
2022/05/13 00:02:34;;;;;;;0.63;0.10;;;;;;;;;;5013538;28;20375;-83
2022/05/13 00:05:03;;;;;;;1.52;0.10;;;;;;;;;;4998484;28;20042;-83
2022/05/13 00:07:30;;;;;;;0.70;0.20;;;;;;;;;;4995947;28;20073;-83
2022/05/13 00:09:58;;;;;;;1.92;0.10;;;;;;;;;;4995827;28;20046;-84
2022/05/13 00:12:30;;;;;;;1.00;0.10;;;;;;;;;;4992998;28;20042;-83
2022/05/13 00:14:58;;;;;;;1.02;0.10;;;;;;;;;;5009324;28;20056;-83
2022/05/13 00:17:26;;;;;;;0.08;0.05;;;;;;;;;;4995472;28;20088;-83
2022/05/13 00:19:53;;;;;;;0.73;0.10;;;;;;;;;;4995645;28;20053;-84
2022/05/13 00:22:20;;;;;;;1.40;0.10;;;;;;;;;;4992354;28;20058;-84
2022/05/13 00:24:53;;;;;;;0.65;0.10;;;;;;;;;;5008544;28;20038;-83
2022/05/13 00:27:21;;;;;;;0.75;0.10;;;;;;;;;;4998424;28;20132;-84
2022/05/13 00:29:49;;;;;;;1.75;0.10;;;;;;;;;;4995623;28;20042;-83
2022/05/13 00:32:17;;;;;;;3.38;0.20;;;;;;;;;;4995473;28;20076;-83
2022/05/13 00:34:44;;;;;;;0.70;0.17;;;;;;;;;;4995174;28;20041;-83
2022/05/13 00:37:12;;;;;;;0.65;0.10;;;;;;;;;;5011786;28;20042;-83
2022/05/13 00:39:39;;;;;;;2.30;0.60;;;;;;;;;;4995369;28;20046;-83
2022/05/13 00:42:08;;;;;;;1.50;0.10;;;;;;;;;;4995386;28;20046;-83
2022/05/13 00:44:36;;;;;;;1.83;0.30;;;;;;;;;;5011572;28;20099;-83
2022/05/13 00:47:05;;;;;;;1.10;0.20;;;;;;;;;;4995046;28;20050;-83
2022/05/13 00:49:32;;;;;;;2.53;0.20;;;;;;;;;;4979011;28;20057;-83
2022/05/13 00:52:00;;;;;;;2.55;0.17;;;;;;;;;;4979402;28;20037;-83
2022/05/13 00:54:29;;;;;;;1.30;0.10;;;;;;;;;;4979207;28;20045;-83
2022/05/13 00:56:57;;;;;;;1.38;0.10;;;;;;;;;;5008471;28;20050;-83
2022/05/13 00:59:27;;;;;;;2.00;0.10;;;;;;;;;;4990896;28;20100;-82
2022/05/13 01:01:54;;;;;;;0.40;0.10;;;;;;;;;;5011465;28;20057;-83
2022/05/13 01:04:22;;;;;;;2.60;0.17;;;;;;;;;;5011228;28;20052;-82
2022/05/13 01:06:51;;;;;;;1.23;0.20;;;;;;;;;;4994999;28;20048;-82
2022/05/13 01:09:20;;;;;;;1.48;0.20;;;;;;;;;;4995055;28;20125;-82
2022/05/13 01:11:49;;;;;;;1.08;0.20;;;;;;;;;;5011053;28;20100;-83
2022/05/13 01:14:22;;;;;;;3.50;0.20;;;;;;;;;;5011457;28;20053;-82
2022/05/13 01:19:35;;;;;;;1.88;0.20;;;;;;;;;;4997557;28;20049;-83
2022/05/13 01:22:15;;;;;;;0.70;0.17;;;;;;;;;;5011266;28;20251;-82
2022/05/13 01:24:44;;;;;;;0.77;0.15;;;;;;;;;;5011160;28;20401;-82
2022/05/13 01:27:11;;;;;;;2.00;0.17;;;;;;;;;;5011218;28;20088;-82
2022/05/13 01:29:38;;;;;;;0.73;0.10;;;;;;;;;;5008687;28;20568;-82
2022/05/13 01:32:06;;;;;;;0.47;0.13;;;;;;;;;;4994079;28;20050;-82
2022/05/13 01:34:33;;;;;;;4.43;0.38;;;;;;;;;;4975019;28;20052;-82
2022/05/13 01:37:01;;;;;;;1.10;0.17;;;;;;;;;;5008410;28;20460;-82
2022/05/13 01:39:28;;;;;;;0.47;0.15;;;;;;;;;;5014715;28;20387;-82
2022/05/13 01:41:58;;;;;;;1.25;0.20;;;;;;;;;;4983415;28;20042;-82
2022/05/13 01:44:25;;;;;;;0.75;0.10;;;;;;;;;;5014682;28;20046;-82
2022/05/13 01:46:53;;;;;;;0.68;0.10;;;;;;;;;;5014488;28;20049;-82
2022/05/13 01:49:20;;;;;;;3.17;0.20;;;;;;;;;;4997911;28;20136;-82
2022/05/13 01:51:47;;;;;;;0.95;0.20;;;;;;;;;;5014860;28;20050;-82
2022/05/13 01:54:15;;;;;;;2.38;0.30;;;;;;;;;;5015957;28;20363;-82
2022/05/13 01:56:42;;;;;;;0.50;0.20;;;;;;;;;;4998930;28;20116;-83
2022/05/13 01:59:09;;;;;;;1.92;0.20;;;;;;;;;;4979140;28;20510;-82
2022/05/13 02:01:37;;;;;;;2.90;0.38;;;;;;;;;;4994403;28;20042;-82
2022/05/13 02:04:04;;;;;;;1.27;0.20;;;;;;;;;;4994808;28;20209;-82
2022/05/13 02:06:32;;;;;;;1.55;0.25;;;;;;;;;;4997588;28;20054;-82
2022/05/13 02:09:00;;;;;;;1.33;0.30;;;;;;;;;;4997432;28;20831;-82
2022/05/13 02:11:28;;;;;;;1.13;0.20;;;;;;;;;;5014055;28;20038;-83
2022/05/13 02:13:55;;;;;;;3.72;0.20;;;;;;;;;;5014119;28;20111;-82
2022/05/13 02:16:23;;;;;;;0.82;0.20;;;;;;;;;;5014060;28;20058;-82
2022/05/13 02:18:51;;;;;;;1.52;0.30;;;;;;;;;;4998269;28;20046;-83
2022/05/13 02:21:19;;;;;;;1.70;0.10;;;;;;;;;;4997901;28;20041;-83
2022/05/13 02:23:46;;;;;;;2.20;0.40;;;;;;;;;;5014302;28;20092;-83
2022/05/13 02:26:14;;;;;;;0.85;0.50;;;;;;;;;;4981675;28;20046;-82
2022/05/13 02:28:42;;;;;;;1.25;0.32;;;;;;;;;;5013614;28;20050;-82
2022/05/13 02:31:10;;;;;;;1.77;0.30;;;;;;;;;;4996802;28;20073;-82
2022/05/13 02:33:38;;;;;;;2.22;0.50;;;;;;;;;;5028971;28;20064;-83
2022/05/13 02:36:06;;;;;;;2.58;0.30;;;;;;;;;;5013758;28;20084;-82
2022/05/13 02:38:35;;;;;;;1.10;0.15;;;;;;;;;;4994382;28;20096;-82
2022/05/13 02:41:11;;;;;;;0.32;0.10;;;;;;;;;;5005285;28;20499;-82
2022/05/13 02:43:40;;;;;;;1.95;0.20;;;;;;;;;;4997358;28;20038;-82
2022/05/13 02:46:07;;;;;;;2.13;0.47;;;;;;;;;;5013538;28;20050;-81
2022/05/13 02:48:35;;;;;;;3.17;0.20;;;;;;;;;;5013543;28;20073;-82
2022/05/13 02:51:02;;;;;;;2.15;0.30;;;;;;;;;;4997077;28;20042;-82
2022/05/13 02:53:30;;;;;;;1.75;0.40;;;;;;;;;;5013701;28;20046;-82
2022/05/13 02:55:57;;;;;;;2.70;0.47;;;;;;;;;;5013620;28;20510;-82
2022/05/13 02:58:25;;;;;;;0.85;0.30;;;;;;;;;;4994272;28;20120;-82
2022/05/13 03:00:53;;;;;;;1.55;0.40;;;;;;;;;;4997245;28;20140;-81
2022/05/13 03:03:20;;;;;;;1.88;0.45;;;;;;;;;;4997287;28;20080;-81
2022/05/13 03:05:51;;;;;;;2.67;0.40;;;;;;;;;;5013159;28;20038;-82
2022/05/13 03:08:19;;;;;;;1.38;0.30;;;;;;;;;;5013497;28;20137;-83
2022/05/13 03:10:46;;;;;;;1.90;0.40;;;;;;;;;;5013202;28;20490;-82
2022/05/13 03:13:18;;;;;;;3.83;0.40;;;;;;;;;;5013062;28;20434;-83
2022/05/13 03:15:46;;;;;;;2.47;0.32;;;;;;;;;;4993245;28;20056;-82
2022/05/13 03:18:14;;;;;;;1.65;0.38;;;;;;;;;;5005950;28;20045;-83
2022/05/13 03:20:42;;;;;;;2.53;0.50;;;;;;;;;;4997027;28;20049;-81
2022/05/13 03:23:09;;;;;;;2.85;0.40;;;;;;;;;;4993761;28;20045;-81
2022/05/13 03:25:37;;;;;;;3.60;0.77;;;;;;;;;;4994439;28;20054;-81
2022/05/13 03:28:04;;;;;;;3.50;0.77;;;;;;;;;;4985873;28;20045;-81
2022/05/13 03:30:32;;;;;;;1.63;0.50;;;;;;;;;;4989272;28;20030;-81
2022/05/13 03:32:59;;;;;;;4.63;0.60;;;;;;;;;;5018983;28;20032;-82
2022/05/13 03:35:27;;;;;;;3.80;0.73;;;;;;;;;;5033101;28;20061;-82
2022/05/13 03:37:54;;;;;;;4.32;0.90;;;;;;;;;;5019910;28;20457;-81
2022/05/13 03:40:22;;;;;;;3.67;0.80;;;;;;;;;;4999680;28;20050;-82
2022/05/13 03:42:49;;;;;;;2.80;0.43;;;;;;;;;;5013584;28;20188;-82
2022/05/13 03:45:18;;;;;;;2.40;0.60;;;;;;;;;;5012831;28;20383;-82
2022/05/13 03:47:48;;;;;;;2.47;0.52;;;;;;;;;;5012654;28;20050;-82
2022/05/13 03:50:16;;;;;;;4.40;1.05;;;;;;;;;;5012931;28;20081;-81
2022/05/13 03:52:43;;;;;;;4.20;1.10;;;;;;;;;;4996476;28;20074;-81
2022/05/13 03:55:10;;;;;;;5.00;0.98;;;;;;;;;;4996210;28;20085;-82
2022/05/13 03:57:38;;;;;;;1.50;0.55;;;;;;;;;;5011970;28;20054;-82
2022/05/13 04:00:06;;;;;;;3.00;0.57;;;;;;;;;;4980563;28;20053;-82
2022/05/13 04:02:34;;;;;;;1.38;0.43;;;;;;;;;;4977589;28;20568;-83
2022/05/13 04:10:34;;;;;;;2.97;1.15;;;;;;;;;;5012211;28;20046;-82
2022/05/13 04:16:08;;;;;;;2.50;0.50;;;;;;;;;;4989232;28;20518;-80
2022/05/13 04:18:38;;;;;;;3.42;0.63;;;;;;;;;;4997198;28;20096;-80
2022/05/13 04:21:07;;;;;;;2.45;0.70;;;;;;;;;;4995677;28;20041;-80
2022/05/13 04:23:35;;;;;;;4.05;0.75;;;;;;;;;;5011570;28;20112;-81
2022/05/13 04:26:03;;;;;;;2.40;0.70;;;;;;;;;;5011706;28;20042;-79
2022/05/13 04:28:30;;;;;;;5.40;0.80;;;;;;;;;;5011765;28;20352;-80
2022/05/13 04:31:00;;;;;;;1.77;0.63;;;;;;;;;;5011989;28;20038;-80
2022/05/13 04:33:35;;;;;;;4.07;0.57;;;;;;;;;;4996970;28;20073;-80
2022/05/13 04:36:02;;;;;;;2.50;0.60;;;;;;;;;;4995183;28;20517;-80
2022/05/13 04:38:30;;;;;;;3.85;0.75;;;;;;;;;;5011421;28;21317;-80
2022/05/13 04:42:49;;;;;;;5.03;1.52;;;;;;;;;;4994662;28;20061;-82
2022/05/13 04:43:45;;;;;;;3.75;0.75;;;;;;;;;;5010852;28;20042;-82
2022/05/13 04:46:12;;;;;;;3.05;1.15;;;;;;;;;;4991023;28;20137;-82
2022/05/13 04:48:40;;;;;;;4.72;0.90;;;;;;;;;;4989350;28;20129;-82
2022/05/13 04:51:10;;;;;;;3.55;0.82;;;;;;;;;;4993809;28;20120;-83
2022/05/13 04:53:38;;;;;;;3.70;0.90;;;;;;;;;;5010959;28;20038;-83
2022/05/13 04:56:08;;;;;;;1.90;0.70;;;;;;;;;;4994844;28;20053;-82
2022/05/13 04:58:36;;;;;;;6.75;0.90;;;;;;;;;;4997965;28;20045;-82
2022/05/13 05:01:04;;;;;;;5.10;1.10;;;;;;;;;;4995434;28;20053;-83
2022/05/13 05:03:32;;;;;;;4.53;1.52;;;;;;;;;;5011058;28;20049;-83
2022/05/13 05:05:59;;;;;;;6.80;1.33;;;;;;;;;;5011223;28;20116;-83
2022/05/13 05:08:28;;;;;;;3.67;0.90;;;;;;;;;;5010977;28;20046;-82
2022/05/13 05:10:56;;;;;;;2.92;0.98;;;;;;;;;;5011315;28;20041;-82
2022/05/13 05:13:28;;;;;;;4.30;0.95;;;;;;;;;;4998913;28;20096;-83
2022/05/13 05:15:56;;;;;;;5.35;1.40;;;;;;;;;;5015294;28;20056;-83
2022/05/13 05:18:24;;;;;;;6.20;1.23;;;;;;;;;;5015064;28;20049;-83
2022/05/13 05:20:51;;;;;;;6.65;1.25;;;;;;;;;;4991637;28;20148;-83
2022/05/13 05:23:18;;;;;;;4.32;1.38;;;;;;;;;;5008740;28;20038;-83
2022/05/13 05:25:46;;;;;;;5.25;1.38;;;;;;;;;;5014629;28;20133;-83
2022/05/13 05:28:14;;;;;;;3.05;1.08;;;;;;;;;;5015269;28;20195;-83
2022/05/13 05:30:42;;;;;;;7.28;2.40;;;;;;;;;;5015401;28;20133;-84
2022/05/13 05:33:10;;;;;;;10.43;2.95;;;;;;;;;;5000905;28;20038;-83
2022/05/13 05:35:38;;;;;;;5.32;1.92;;;;;;;;;;5014720;28;20057;-84
2022/05/13 05:38:07;;;;;;;8.38;2.30;;;;;;;;;;5014910;28;20065;-83
2022/05/13 05:40:35;;;;;;;6.20;1.75;;;;;;;;;;5014710;28;20068;-83
2022/05/13 05:43:04;;;;;;;5.65;1.77;;;;;;;;;;5014453;28;20064;-83
2022/05/13 05:45:31;;;;;;;6.13;1.65;;;;;;;;;;4998343;28;20056;-84
2022/05/13 05:47:59;;;;;;;5.85;2.47;;;;;;;;;;5013931;28;20050;-83
2022/05/13 05:50:27;;;;;;;6.95;3.05;;;;;;;;;;5013853;28;20042;-84
2022/05/13 05:52:54;;;;;;;8.20;2.03;;;;;;;;;;4997939;28;20042;-83
2022/05/13 05:58:09;;;;;;;6.50;2.22;;;;;;;;;;5014230;28;20056;-83
2022/05/13 06:00:39;;;;;;;7.30;2.60;;;;;;;;;;5014473;28;20077;-82
2022/05/13 06:03:06;;;;;;;9.80;3.08;;;;;;;;;;5014401;28;20040;-82
2022/05/13 06:05:34;;;;;;;8.68;3.58;;;;;;;;;;4978956;28;20403;-82
2022/05/13 06:08:02;;;;;;;7.70;2.67;;;;;;;;;;4998635;28;20126;-82
2022/05/13 06:10:30;;;;;;;6.20;3.13;;;;;;;;;;5014029;28;20077;-83
2022/05/13 06:12:57;;;;;;;9.40;3.10;;;;;;;;;;5013912;28;20046;-83
2022/05/13 06:15:25;;;;;;;7.78;2.92;;;;;;;;;;4984527;28;20046;-83
2022/05/13 06:17:54;;;;;;;6.88;3.33;;;;;;;;;;5013766;28;20054;-82
2022/05/13 06:20:22;;;;;;;8.40;3.08;;;;;;;;;;5013040;28;20080;-82
2022/05/13 06:22:50;;;;;;;9.10;3.60;;;;;;;;;;5012766;28;20069;-84
2022/05/13 06:25:19;;;;;;;9.65;3.00;;;;;;;;;;4997400;28;20445;-84
2022/05/13 06:27:47;;;;;;;7.65;2.95;;;;;;;;;;4997454;28;20104;-83
2022/05/13 06:30:20;;;;;;;6.30;3.35;;;;;;;;;;5012877;28;20038;-83
2022/05/13 06:32:47;;;;;;;12.27;3.25;;;;;;;;;;5012846;28;20100;-84
2022/05/13 06:35:15;;;;;;;7.35;2.53;;;;;;;;;;5013932;28;20037;-84
2022/05/13 06:37:42;;;;;;;8.35;3.08;;;;;;;;;;4996650;28;20499;-84
2022/05/13 06:40:10;;;;;;;9.75;3.03;;;;;;;;;;4995933;28;20042;-84
2022/05/13 06:42:38;;;;;;;8.45;3.67;;;;;;;;;;5012802;28;20049;-84
2022/05/13 06:45:06;;;;;;;6.47;3.03;;;;;;;;;;4980656;28;20459;-85
2022/05/13 06:47:33;;;;;;;10.73;3.38;;;;;;;;;;4996092;28;20123;-79
2022/05/13 06:50:03;;;;;;;6.20;2.45;;;;;;;;;;4994197;28;20077;-79
2022/05/13 06:52:30;;;;;;;9.35;2.80;;;;;;;;;;5012875;28;20350;-79
2022/05/13 06:55:12;;;;;;;11.18;3.38;;;;;;;;;;4986612;28;20165;-81
2022/05/13 06:57:40;;;;;;;7.43;2.65;;;;;;;;;;5012584;28;20045;-82
2022/05/13 07:00:08;;;;;;;6.53;2.67;;;;;;;;;;4995856;28;20074;-76
2022/05/13 07:02:37;;;;;;;7.25;2.97;;;;;;;;;;4996444;28;20073;-77
2022/05/13 07:05:05;;;;;;;8.73;3.90;;;;;;;;;;5012327;28;20046;-77
2022/05/13 07:07:34;;;;;;;12.07;3.63;;;;;;;;;;5012871;28;20045;-77
2022/05/13 07:10:01;;;;;;;10.18;3.72;;;;;;;;;;4996322;28;20048;-77
2022/05/13 07:12:29;;;;;;;8.95;3.67;;;;;;;;;;5012632;28;20096;-77
2022/05/13 07:14:56;;;;;;;9.55;3.67;;;;;;;;;;5012713;28;20050;-77
2022/05/13 07:17:24;;;;;;;8.55;3.88;;;;;;;;;;4996662;28;20053;-77
2022/05/13 07:19:51;;;;;;;10.40;3.83;;;;;;;;;;5012819;28;20406;-77
2022/05/13 07:22:19;;;;;;;7.47;3.75;;;;;;;;;;5012678;28;20050;-80
2022/05/13 07:24:46;;;;;;;13.45;4.88;;;;;;;;;;4996731;28;20080;-82
2022/05/13 07:27:13;;;;;;;8.57;3.35;;;;;;;;;;5012996;28;20049;-81
2022/05/13 07:29:41;;;;;;;14.00;4.97;;;;;;;;;;5012353;28;20049;-77
2022/05/13 07:32:08;;;;;;;11.80;4.65;;;;;;;;;;4995810;28;20467;-78
2022/05/13 07:34:36;;;;;;;9.07;3.13;;;;;;;;;;5028057;28;20045;-78
2022/05/13 07:37:04;;;;;;;11.60;3.60;;;;;;;;;;5011930;28;20037;-77
2022/05/13 07:42:17;;;;;;;13.90;4.47;;;;;;;;;;4994888;28;20095;-77
2022/05/13 07:44:46;;;;;;;11.30;4.40;;;;;;;;;;4993043;28;20038;-77
2022/05/13 07:47:16;;;;;;;10.40;3.55;;;;;;;;;;5011524;28;20078;-78
2022/05/13 07:49:44;;;;;;;6.93;3.45;;;;;;;;;;5011745;28;20034;-77
2022/05/13 07:52:12;;;;;;;8.70;4.10;;;;;;;;;;4992236;28;20093;-77
2022/05/13 07:54:41;;;;;;;10.88;4.32;;;;;;;;;;4995892;28;20092;-77
2022/05/13 07:57:09;;;;;;;9.13;3.92;;;;;;;;;;5012016;28;20050;-77
2022/05/13 08:00:24;;;;;;;7.07;3.47;;;;;;;;;;5028576;28;20046;-77
2022/05/13 08:02:24;;;;;;;6.43;3.58;;;;;;;;;;4997777;28;20410;-78
2022/05/13 08:04:52;;;;;;;7.95;3.65;;;;;;;;;;4994606;28;20076;-79
2022/05/13 08:07:19;;;;;;;8.98;4.72;;;;;;;;;;4994475;28;20490;-78
2022/05/13 08:09:46;;;;;;;9.25;4.55;;;;;;;;;;4994775;28;20061;-79
2022/05/13 08:12:14;;;;;;;6.28;3.83;;;;;;;;;;4991620;28;20491;-79
2022/05/13 08:14:41;;;;;;;9.02;3.70;;;;;;;;;;4991265;28;20066;-79
2022/05/13 08:17:08;;;;;;;10.48;4.07;;;;;;;;;;4977940;28;20513;-78
2022/05/13 08:19:36;;;;;;;7.55;3.63;;;;;;;;;;4999647;28;20125;-78
2022/05/13 08:22:03;;;;;;;7.63;3.22;;;;;;;;;;5018222;28;20034;-78
2022/05/13 08:24:31;;;;;;;10.32;4.13;;;;;;;;;;4975885;28;20068;-78
2022/05/13 08:26:58;;;;;;;11.77;4.07;;;;;;;;;;4995142;28;20041;-78
2022/05/13 08:29:26;;;;;;;8.80;3.40;;;;;;;;;;5006741;28;20069;-76
2022/05/13 08:31:53;;;;;;;6.38;3.15;;;;;;;;;;5011261;28;20057;-76
2022/05/13 08:34:20;;;;;;;8.57;2.88;;;;;;;;;;5011680;28;20042;-79
2022/05/13 08:36:50;;;;;;;6.93;2.97;;;;;;;;;;4979553;28;20133;-76
2022/05/13 08:39:17;;;;;;;7.40;2.75;;;;;;;;;;4995981;28;20038;-76
2022/05/13 08:42:05;;;;;;;7.13;3.40;;;;;;;;;;5002548;28;20578;-77
2022/05/13 08:44:32;;;;;;;9.77;3.25;;;;;;;;;;5017341;28;20042;-77
2022/05/13 08:47:19;;;;;;;5.88;2.83;;;;;;;;;;5019158;28;20054;-80
2022/05/13 08:49:48;;;;;;;6.65;2.45;;;;;;;;;;4996579;28;20133;-81
2022/05/13 08:55:27;;;;;;;7.65;2.40;;;;;;;;;;5011876;28;20114;-82
2022/05/13 08:57:56;;;;;;;7.07;1.80;;;;;;;;;;4995435;28;20184;-81
2022/05/13 09:00:34;;;;;;;5.57;2.25;;;;;;;;;;5011711;28;20116;-81
2022/05/13 09:03:22;;;;;;;4.85;1.80;;;;;;;;;;4991637;28;20049;-82
2022/05/13 09:05:56;;;;;;;5.85;1.63;;;;;;;;;;5011077;28;20038;-81
2022/05/13 09:08:23;;;;;;;3.88;1.00;;;;;;;;;;5011667;28;20034;-82
2022/05/13 09:11:11;;;;;;;3.03;0.90;;;;;;;;;;4995043;28;20108;-82
2022/05/13 09:13:57;;;;;;;2.65;0.75;;;;;;;;;;5010858;28;20137;-82
2022/05/13 09:16:43;;;;;;;3.28;0.50;;;;;;;;;;5000061;28;20474;-76
2022/05/13 09:19:14;;;;;;;3.42;0.95;;;;;;;;;;5010640;28;20054;-76
2022/05/13 09:21:45;;;;;;;2.38;0.45;;;;;;;;;;5010121;28;20057;-76
2022/05/13 09:24:13;;;;;;;6.22;0.57;;;;;;;;;;5010205;28;20033;-76
2022/05/13 09:26:41;;;;;;;7.10;0.85;;;;;;;;;;4994203;28;20066;-76
2022/05/13 09:29:17;;;;;;;1.02;0.40;;;;;;;;;;4993917;28;20050;-76
2022/05/13 09:31:47;;;;;;;1.55;0.30;;;;;;;;;;4993842;28;20050;-76
2022/05/13 09:34:17;;;;;;;3.75;0.60;;;;;;;;;;5010225;28;20100;-77
2022/05/13 09:36:45;;;;;;;3.28;0.65;;;;;;;;;;4994460;28;20054;-77
2022/05/13 09:39:23;;;;;;;2.95;0.50;;;;;;;;;;4994604;28;20096;-76
2022/05/13 09:41:52;;;;;;;1.95;0.65;;;;;;;;;;4994147;28;20830;-76
2022/05/13 09:44:26;;;;;;;2.35;0.50;;;;;;;;;;5010532;28;20049;-76
2022/05/13 09:47:11;;;;;;;6.47;0.75;;;;;;;;;;4996994;28;20045;-77
2022/05/13 09:50:01;;;;;;;3.80;0.63;;;;;;;;;;5000752;28;20049;-77
2022/05/13 09:52:30;;;;;;;3.40;0.77;;;;;;;;;;5046541;28;20041;-77
2022/05/13 09:55:05;;;;;;;1.52;0.50;;;;;;;;;;5013505;28;20504;-77
2022/05/13 09:57:34;;;;;;;1.65;0.65;;;;;;;;;;5032258;28;20095;-77
2022/05/13 10:00:04;;;;;;;3.17;0.88;;;;;;;;;;5035069;28;20080;-77
2022/05/13 10:02:40;;;;;;;4.07;0.60;;;;;;;;;;5017320;28;20060;-76
2022/05/13 10:05:11;;;;;;;1.85;0.45;;;;;;;;;;5017165;28;20156;-76
2022/05/13 10:07:54;;;;;;;2.92;0.45;;;;;;;;;;5035383;28;20250;-77
2022/05/13 10:16:03;;;;;;;2.13;0.50;;;;;;;;;;5017475;28;20065;-86
2022/05/13 10:18:31;;;;;;;2.67;0.65;;;;;;;;;;4998066;28;20125;-78
2022/05/13 10:21:05;;;;;;;3.83;0.60;;;;;;;;;;5035399;28;20046;-79
2022/05/13 10:23:53;;;;;;;3.00;0.57;;;;;;;;;;5000646;28;20046;-78
2022/05/13 10:26:23;;;;;;;5.03;0.95;;;;;;;;;;4997570;28;20053;-78
2022/05/13 10:28:50;;;;;;;5.20;0.77;;;;;;;;;;5016524;28;20041;-77
2022/05/13 10:31:20;;;;;;;2.70;0.60;;;;;;;;;;5016327;28;20056;-79
2022/05/13 10:34:06;;;;;;;2.40;0.50;;;;;;;;;;5049148;28;20143;-78
2022/05/13 10:36:34;;;;;;;1.63;0.40;;;;;;;;;;5002917;28;20045;-78
2022/05/13 10:39:01;;;;;;;2.95;0.73;;;;;;;;;;5034613;28;20080;-77
2022/05/13 10:41:49;;;;;;;3.13;0.40;;;;;;;;;;4993751;28;20403;-77
2022/05/13 10:44:38;;;;;;;2.90;0.40;;;;;;;;;;4996361;28;20045;-81
2022/05/13 10:47:10;;;;;;;2.10;0.38;;;;;;;;;;5016775;28;20140;-86
2022/05/13 10:49:42;;;;;;;2.28;0.68;;;;;;;;;;5033475;28;20045;-82
2022/05/13 10:52:10;;;;;;;;;;;;;;;;;;5001086;28;20045;-82
2022/05/13 10:54:37;;;;;;;3.10;0.75;;;;;;;;;;5016482;28;19960;-82
2022/05/13 10:57:23;;;;;;;2.25;0.40;;;;;;;;;;4999588;28;20041;-80
2022/05/13 10:59:50;;;;;;;1.95;0.40;;;;;;;;;;5019853;28;20564;-84
2022/05/13 11:02:33;;;;;;;2.67;0.40;;;;;;;;;;5000669;28;20061;-81
2022/05/13 11:05:21;;;;;;;3.78;0.50;;;;;;;;;;5016582;28;20041;-85
2022/05/13 11:07:51;;;;;;;2.20;0.40;;;;;;;;;;5010914;28;20041;-85
2022/05/13 11:10:27;;;;;;;2.22;0.32;;;;;;;;;;5017373;28;20132;-82
2022/05/13 11:13:14;;;;;;;2.60;0.35;;;;;;;;;;5049889;28;20033;-86
2022/05/13 11:15:45;;;;;;;1.33;0.45;;;;;;;;;;5005368;28;20069;-91
2022/05/13 11:18:28;;;;;;;3.60;0.52;;;;;;;;;;5032090;28;20037;-82
2022/05/13 11:21:15;;;;;;;2.70;0.70;;;;;;;;;;4984023;28;20050;-85
2022/05/13 11:26:54;;;;;;;5.15;0.70;;;;;;;;;;5023329;28;20107;-92
2022/05/13 11:29:22;;;;;;;4.47;0.70;;;;;;;;;;5000211;28;20054;-86
2022/05/13 11:32:01;;;;;;;1.80;0.35;;;;;;;;;;4995543;28;20348;-82
2022/05/13 11:34:43;;;;;;;4.20;0.30;;;;;;;;;;5015961;28;20038;-81
2022/05/13 11:37:15;;;;;;;3.65;0.47;;;;;;;;;;5029123;28;20099;-84
2022/05/13 11:39:49;;;;;;;2.88;0.60;;;;;;;;;;5031848;28;20560;-85
2022/05/13 11:42:35;;;;;;;2.25;0.40;;;;;;;;;;5014930;28;20047;-81
2022/05/13 11:45:22;;;;;;;3.65;0.60;;;;;;;;;;4997479;28;20042;-82
2022/05/13 11:47:57;;;;;;;3.83;0.70;;;;;;;;;;5010570;28;20050;-82
2022/05/13 11:50:29;;;;;;;2.08;0.50;;;;;;;;;;5004810;28;20042;-77
2022/05/13 11:53:00;;;;;;;2.92;0.50;;;;;;;;;;5005882;28;20041;-80
2022/05/13 11:55:48;;;;;;;3.33;0.30;;;;;;;;;;5004738;28;20045;-80
2022/05/13 11:58:34;;;;;;;2.38;0.50;;;;;;;;;;5019187;28;20065;-78
2022/05/13 12:01:04;;;;;;;3.33;0.50;;;;;;;;;;5028683;28;20045;-79
2022/05/13 12:03:32;;;;;;;1.30;0.30;;;;;;;;;;4995541;28;20569;-77
2022/05/13 12:06:01;;;;;;;3.33;0.40;;;;;;;;;;4995054;28;20052;-79
2022/05/13 12:08:49;;;;;;;3.17;0.40;;;;;;;;;;5010526;28;20065;-78
2022/05/13 12:11:29;;;;;;;2.53;0.57;;;;;;;;;;4994501;28;20072;-78
2022/05/13 12:14:10;;;;;;;2.08;0.40;;;;;;;;;;4996940;28;20088;-77
2022/05/13 12:17:01;;;;;;;1.98;0.35;;;;;;;;;;5001949;28;20096;-78
2022/05/13 12:19:44;;;;;;;1.10;0.40;;;;;;;;;;5011452;28;20050;-78
2022/05/13 12:22:27;;;;;;;4.85;0.50;;;;;;;;;;4998616;28;20077;-77
2022/05/13 12:25:01;;;;;;;2.78;0.60;;;;;;;;;;5000397;28;20050;-80
2022/05/13 12:27:30;;;;;;;2.33;0.40;;;;;;;;;;4987092;28;20630;-81
2022/05/13 12:29:58;;;;;;;1.58;0.30;;;;;;;;;;5009586;28;20038;-80
2022/05/13 12:32:37;;;;;;;2.58;0.38;;;;;;;;;;4995675;28;20073;-80
2022/05/13 12:37:55;;;;;;;2.63;0.40;;;;;;;;;;5006585;28;20037;-84
2022/05/13 12:40:22;;;;;;;3.88;0.40;;;;;;;;;;5011537;28;20137;-82
2022/05/13 12:42:55;;;;;;;2.83;0.60;;;;;;;;;;5011464;28;20038;-80
2022/05/13 12:45:45;;;;;;;3.20;0.60;;;;;;;;;;4995084;28;20041;-80
2022/05/13 12:48:14;;;;;;;2.08;0.40;;;;;;;;;;4985443;28;20091;-80
2022/05/13 12:50:54;;;;;;;2.38;0.52;;;;;;;;;;5011253;28;20045;-81
2022/05/13 12:53:27;;;;;;;1.67;0.40;;;;;;;;;;4992788;28;20038;-83
2022/05/13 12:56:09;;;;;;;1.38;0.30;;;;;;;;;;4996141;28;20081;-84
2022/05/13 12:58:41;;;;;;;3.50;0.60;;;;;;;;;;5002832;28;20050;-84
2022/05/13 13:01:13;;;;;;;6.75;0.50;;;;;;;;;;4995691;28;20042;-83
2022/05/13 13:03:41;;;;;;;2.65;0.30;;;;;;;;;;5011822;28;20045;-85
2022/05/13 13:06:15;;;;;;;2.45;0.40;;;;;;;;;;4995716;28;20068;-84
2022/05/13 13:08:44;;;;;;;0.70;0.30;;;;;;;;;;5011709;28;20470;-82
2022/05/13 13:11:17;;;;;;;2.40;0.38;;;;;;;;;;4994307;28;20054;-84
2022/05/13 13:13:47;;;;;;;1.23;0.30;;;;;;;;;;5010250;28;20081;-88
2022/05/13 13:16:34;;;;;;;3.88;0.40;;;;;;;;;;4996565;28;20503;-89
2022/05/13 13:19:06;;;;;;;1.50;0.30;;;;;;;;;;4993305;28;20554;-90
2022/05/13 13:21:34;;;;;;;1.55;0.40;;;;;;;;;;5028181;28;20042;-81
2022/05/13 13:24:01;;;;;;;2.47;0.30;;;;;;;;;;5011069;28;20042;-85
2022/05/13 13:26:29;;;;;;;2.83;0.50;;;;;;;;;;4991823;28;20104;-83
2022/05/13 13:28:56;;;;;;;1.15;0.30;;;;;;;;;;4994195;28;20058;-79
2022/05/13 13:31:26;;;;;;;2.83;0.55;;;;;;;;;;4998553;28;20042;-85
2022/05/13 13:33:54;;;;;;;1.67;0.60;;;;;;;;;;5014381;28;20133;-77
2022/05/13 13:36:25;;;;;;;2.13;0.57;;;;;;;;;;4999164;28;20052;-81
2022/05/13 13:38:54;;;;;;;2.72;0.43;;;;;;;;;;5015318;28;20096;-85
2022/05/13 13:41:33;;;;;;;2.05;0.55;;;;;;;;;;5007714;28;20458;-84
2022/05/13 13:44:08;;;;;;;5.72;0.77;;;;;;;;;;5017540;28;20400;-78
2022/05/13 13:46:37;;;;;;;3.92;0.52;;;;;;;;;;4997913;28;20073;-76
2022/05/13 13:49:05;;;;;;;3.20;0.50;;;;;;;;;;5014821;28;20049;-79
2022/05/13 13:51:34;;;;;;;6.35;1.00;;;;;;;;;;5014775;28;20116;-78
2022/05/13 13:54:07;;;;;;;2.40;0.57;;;;;;;;;;5014459;28;20049;-77
2022/05/13 13:56:36;;;;;;;2.92;0.40;;;;;;;;;;5015493;28;20096;-78
2022/05/13 13:59:16;;;;;;;3.38;0.50;;;;;;;;;;5014214;28;20049;-77
2022/05/13 14:01:49;;;;;;;4.38;1.10;;;;;;;;;;5010897;28;20038;-77
2022/05/13 14:04:20;;;;;;;3.13;0.80;;;;;;;;;;4997453;28;20046;-78
2022/05/13 14:06:48;;;;;;;3.28;0.70;;;;;;;;;;5010345;28;20061;-76
2022/05/13 14:09:18;;;;;;;3.08;0.43;;;;;;;;;;4992185;28;20842;-81
2022/05/13 14:11:46;;;;;;;1.98;0.75;;;;;;;;;;5014128;28;20045;-78
2022/05/13 14:14:34;;;;;;;3.40;0.60;;;;;;;;;;5012180;28;20471;-80
2022/05/13 14:17:05;;;;;;;1.40;0.40;;;;;;;;;;5014006;28;20077;-82
2022/05/13 14:19:33;;;;;;;;;;;;;;;;;;4998163;28;20052;-77
2022/05/13 14:22:02;;;;;;;4.28;0.52;;;;;;;;;;5029696;28;19921;-79
2022/05/13 14:24:31;;;;;;;3.75;0.63;;;;;;;;;;5013718;28;20054;-78
2022/05/13 14:27:00;;;;;;;1.77;0.50;;;;;;;;;;5010022;28;20046;-79
2022/05/13 14:29:32;;;;;;;2.30;0.38;;;;;;;;;;5011096;28;20116;-80
2022/05/13 14:32:05;;;;;;;3.53;0.52;;;;;;;;;;4991316;28;20041;-80
2022/05/13 14:34:32;;;;;;;2.75;0.65;;;;;;;;;;5027229;28;20074;-79
2022/05/13 14:37:02;;;;;;;2.55;0.43;;;;;;;;;;4994109;28;20045;-77
2022/05/13 14:39:51;;;;;;;3.13;0.60;;;;;;;;;;4993224;28;20045;-76
2022/05/13 14:42:34;;;;;;;1.70;0.47;;;;;;;;;;5008727;28;20430;-78
2022/05/13 14:45:16;;;;;;;1.83;0.40;;;;;;;;;;5024845;28;20039;-77
2022/05/13 14:47:48;;;;;;;1.70;0.40;;;;;;;;;;5016554;28;20156;-75
2022/05/13 14:50:21;;;;;;;1.50;0.50;;;;;;;;;;5034136;28;20038;-77
2022/05/13 14:52:53;;;;;;;1.65;0.57;;;;;;;;;;5034262;28;20049;-77
2022/05/13 14:55:26;;;;;;;2.17;0.55;;;;;;;;;;5032563;28;20421;-77
2022/05/13 14:57:53;;;;;;;2.08;0.52;;;;;;;;;;5032719;28;20049;-77
2022/05/13 15:00:23;;;;;;;2.03;0.50;;;;;;;;;;5008486;28;20183;-75
2022/05/13 15:02:53;;;;;;;4.40;0.70;;;;;;;;;;5049213;28;20076;-77
2022/05/13 15:05:26;;;;;;;4.22;0.60;;;;;;;;;;5016049;28;20052;-78
2022/05/13 15:07:53;;;;;;;1.63;0.50;;;;;;;;;;5015750;28;20493;-80
2022/05/13 15:10:22;;;;;;;3.35;0.80;;;;;;;;;;5033880;28;20071;-78
2022/05/13 15:12:49;;;;;;;2.10;0.70;;;;;;;;;;5015928;28;20041;-77
2022/05/13 15:15:17;;;;;;;3.03;0.90;;;;;;;;;;5015386;28;20133;-78
2022/05/13 15:17:55;;;;;;;3.38;0.70;;;;;;;;;;5038851;28;20112;-77
2022/05/13 15:20:24;;;;;;;1.88;0.50;;;;;;;;;;5012230;28;20030;-77
2022/05/13 15:22:52;;;;;;;4.25;0.60;;;;;;;;;;5026325;28;20061;-77
2022/05/13 15:25:26;;;;;;;4.32;0.80;;;;;;;;;;5017398;28;20132;-78
2022/05/13 15:27:54;;;;;;;5.38;1.15;;;;;;;;;;5004775;28;20040;-76
2022/05/13 15:30:22;;;;;;;3.67;1.13;;;;;;;;;;5048865;28;20064;-76
2022/05/13 15:32:50;;;;;;;4.90;1.02;;;;;;;;;;5015654;28;20037;-75
2022/05/13 15:35:17;;;;;;;3.33;1.23;;;;;;;;;;5005077;28;20456;-76